Time;durP1;ratioP1;P1;durP2;ratioP2;P2;SDS_P1;SDS_P2;PMS_P1;PMS_P2;Temp;Humidity;BMP_temperature;BMP_pressure;BME280_temperature;BME280_humidity;BME280_pressure;Samples;Min_cycle;Max_cycle;Signal;HPM_P1;HPM_P2
2023/06/04 00:02:11;;;;;;;6.63;3.05;;;23.10;44.50;;;;;;6201769;28;83844;-59
2023/06/04 00:05:11;;;;;;;5.85;3.33;;;23.10;44.50;;;;;;6201610;28;80392;-59
2023/06/04 00:08:12;;;;;;;4.00;2.95;;;23.10;44.50;;;;;;6200506;28;81461;-60
2023/06/04 00:11:12;;;;;;;7.32;3.08;;;23.10;44.60;;;;;;6199285;28;80458;-59
2023/06/04 00:14:13;;;;;;;4.45;3.05;;;23.10;44.50;;;;;;6202057;28;80415;-60
2023/06/04 00:17:13;;;;;;;8.65;3.05;;;23.10;44.50;;;;;;6201204;28;80246;-60
2023/06/04 00:20:14;;;;;;;5.15;3.58;;;23.10;44.50;;;;;;6202417;28;81483;-58
2023/06/04 00:23:14;;;;;;;6.60;3.05;;;23.10;44.60;;;;;;6190323;28;80228;-60
2023/06/04 00:26:15;;;;;;;6.03;2.90;;;23.10;44.60;;;;;;6183858;28;80486;-63
2023/06/04 00:29:20;;;;;;;3.90;3.08;;;23.10;44.60;;;;;;6178022;28;86092;-60
2023/06/04 00:32:21;;;;;;;4.45;2.67;;;23.10;44.60;;;;;;6200130;28;80353;-61
2023/06/04 00:35:21;;;;;;;6.43;3.08;;;23.10;44.60;;;;;;6201125;28;80792;-61
2023/06/04 00:38:22;;;;;;;5.72;3.40;;;23.00;44.50;;;;;;6183772;28;82354;-60
2023/06/04 00:41:22;;;;;;;4.68;2.97;;;23.00;44.60;;;;;;6184241;28;81443;-61
2023/06/04 00:44:25;;;;;;;10.65;3.47;;;23.00;44.60;;;;;;6176122;28;83319;-62
2023/06/04 00:47:25;;;;;;;5.15;2.97;;;23.00;44.60;;;;;;6201825;28;80623;-62
2023/06/04 00:50:26;;;;;;;6.47;3.35;;;23.00;44.70;;;;;;6202611;28;80337;-71
2023/06/04 00:53:26;;;;;;;4.78;3.10;;;23.00;44.60;;;;;;6201377;28;81006;-73
2023/06/04 00:56:27;;;;;;;4.78;3.05;;;23.00;44.60;;;;;;6200033;28;80244;-70
2023/06/04 00:59:28;;;;;;;5.57;3.33;;;23.00;44.60;;;;;;6200755;28;81619;-68
2023/06/04 01:02:29;;;;;;;8.00;3.20;;;23.00;44.60;;;;;;6184407;28;83273;-68
2023/06/04 01:05:30;;;;;;;5.28;3.05;;;23.00;44.60;;;;;;6201226;28;83570;-66
2023/06/04 01:08:30;;;;;;;6.53;3.13;;;23.00;44.60;;;;;;6189562;28;84709;-69
2023/06/04 01:11:31;;;;;;;4.38;2.72;;;23.00;44.60;;;;;;6187431;28;80452;-70
2023/06/04 01:14:33;;;;;;;4.40;2.97;;;23.00;44.60;;;;;;6198358;28;82526;-70
2023/06/04 01:17:37;;;;;;;4.07;2.70;;;22.90;44.50;;;;;;6171572;28;87270;-70
2023/06/04 01:20:37;;;;;;;6.57;3.45;;;22.90;44.50;;;;;;6172901;28;83537;-68
2023/06/04 01:23:38;;;;;;;5.35;3.10;;;22.90;44.60;;;;;;6184368;28;81573;-70
2023/06/04 01:26:39;;;;;;;6.28;3.30;;;22.90;44.50;;;;;;6191852;28;81765;-70
2023/06/04 01:29:39;;;;;;;6.45;3.13;;;23.00;44.60;;;;;;6201640;28;80391;-70
2023/06/04 01:32:40;;;;;;;6.85;3.25;;;22.90;44.50;;;;;;6184640;28;82921;-69
2023/06/04 01:35:40;;;;;;;6.15;3.60;;;23.00;44.60;;;;;;6201902;28;80328;-72
2023/06/04 01:38:41;;;;;;;5.30;3.08;;;22.90;44.60;;;;;;6200976;28;80469;-69
2023/06/04 01:41:42;;;;;;;4.97;2.97;;;22.90;44.60;;;;;;6185343;28;80382;-71
2023/06/04 01:44:42;;;;;;;5.13;2.95;;;23.00;44.70;;;;;;6199203;28;81552;-61
2023/06/04 01:47:43;;;;;;;4.80;2.90;;;23.00;44.60;;;;;;6187445;28;80358;-62
2023/06/04 01:50:43;;;;;;;4.35;3.10;;;22.90;44.70;;;;;;6189277;28;82231;-61
2023/06/04 01:53:44;;;;;;;5.13;2.80;;;23.00;45.00;;;;;;6189796;28;80652;-61
2023/06/04 01:56:46;;;;;;;5.18;3.25;;;23.00;44.80;;;;;;6194542;28;80634;-62
2023/06/04 01:59:46;;;;;;;6.47;3.58;;;23.00;44.90;;;;;;6173901;28;83415;-61
2023/06/04 02:02:50;;;;;;;4.65;3.00;;;23.00;44.90;;;;;;6184639;28;81565;-61
2023/06/04 02:05:50;;;;;;;5.22;3.33;;;23.00;45.00;;;;;;6189903;28;80551;-61
2023/06/04 02:08:53;;;;;;;5.00;3.35;;;23.00;44.90;;;;;;6198439;28;80512;-63
2023/06/04 02:11:53;;;;;;;5.40;3.58;;;23.00;44.90;;;;;;6179288;28;83687;-62
2023/06/04 02:14:54;;;;;;;5.82;3.20;;;23.00;44.80;;;;;;6193533;28;81141;-62
2023/06/04 02:17:55;;;;;;;6.72;3.47;;;22.90;44.80;;;;;;6193853;28;80549;-63
2023/06/04 02:20:55;;;;;;;5.20;3.35;;;22.90;44.70;;;;;;6183061;28;83727;-66
2023/06/04 02:23:56;;;;;;;5.45;3.33;;;22.90;44.70;;;;;;6183444;28;81101;-67
2023/06/04 02:26:56;;;;;;;7.90;3.30;;;22.90;44.70;;;;;;6188990;28;80960;-69
2023/06/04 02:29:57;;;;;;;6.57;3.35;;;22.90;44.70;;;;;;6189366;28;80360;-66
2023/06/04 02:33:00;;;;;;;8.50;3.83;;;22.90;44.70;;;;;;6175735;28;81848;-66
2023/06/04 02:36:01;;;;;;;6.38;3.35;;;22.90;44.70;;;;;;6177887;28;80485;-66
2023/06/04 02:39:03;;;;;;;6.03;3.42;;;22.90;44.70;;;;;;6172055;28;82724;-61
2023/06/04 02:42:03;;;;;;;5.18;3.13;;;22.90;44.70;;;;;;6196161;28;80235;-62
2023/06/04 02:45:04;;;;;;;4.50;3.08;;;22.80;44.60;;;;;;6173798;28;82051;-62
2023/06/04 02:48:05;;;;;;;10.48;3.60;;;22.80;44.60;;;;;;6184249;28;80390;-62
2023/06/04 02:51:05;;;;;;;5.47;2.65;;;22.90;44.60;;;;;;6180456;28;80888;-60
2023/06/04 02:54:06;;;;;;;7.28;3.10;;;22.90;44.70;;;;;;6174979;28;83137;-61
2023/06/04 02:57:07;;;;;;;4.38;2.75;;;22.80;44.60;;;;;;6188485;28;80526;-60
2023/06/04 03:00:13;;;;;;;5.15;2.85;;;22.80;44.60;;;;;;6181759;28;83875;-61
2023/06/04 03:03:13;;;;;;;5.00;2.80;;;22.80;44.60;;;;;;6199711;28;80635;-62
2023/06/04 03:06:14;;;;;;;5.03;3.00;;;22.80;44.60;;;;;;6199780;28;80366;-61
2023/06/04 03:09:14;;;;;;;6.13;3.08;;;22.80;44.70;;;;;;6181827;28;83656;-61
2023/06/04 03:12:15;;;;;;;4.93;3.20;;;22.80;44.60;;;;;;6180669;28;81835;-62
2023/06/04 03:15:15;;;;;;;4.63;3.05;;;22.80;44.60;;;;;;6190935;28;80539;-61
2023/06/04 03:18:16;;;;;;;4.25;2.85;;;22.80;44.70;;;;;;6195107;28;80572;-61
2023/06/04 03:21:16;;;;;;;4.82;2.95;;;22.80;44.70;;;;;;6173784;28;83350;-62
2023/06/04 03:24:17;;;;;;;5.30;2.90;;;22.80;44.70;;;;;;6169858;28;81580;-62
2023/06/04 03:27:18;;;;;;;4.63;3.00;;;22.80;44.70;;;;;;6175255;28;83430;-62
2023/06/04 03:30:19;;;;;;;4.35;3.20;;;22.80;44.80;;;;;;6177798;28;83543;-61
2023/06/04 03:33:31;;;;;;;6.85;2.83;;;22.80;44.60;;;;;;6181785;28;80896;-71
2023/06/04 03:36:31;;;;;;;4.20;3.15;;;22.80;44.70;;;;;;6187705;28;82228;-72
2023/06/04 03:39:33;;;;;;;4.03;2.72;;;22.90;44.70;;;;;;6187185;28;81527;-71
2023/06/04 03:42:35;;;;;;;6.03;3.22;;;22.80;44.70;;;;;;6179008;28;82171;-70
2023/06/04 03:45:36;;;;;;;4.93;3.00;;;22.80;44.70;;;;;;6168775;28;82028;-69
2023/06/04 03:48:37;;;;;;;5.40;3.00;;;22.80;44.70;;;;;;6201209;28;80426;-69
2023/06/04 03:51:38;;;;;;;5.57;3.08;;;22.80;44.70;;;;;;6168216;28;83105;-62
2023/06/04 03:54:39;;;;;;;8.90;3.33;;;22.80;44.70;;;;;;6176012;28;83090;-68
2023/06/04 03:57:41;;;;;;;5.72;3.10;;;22.80;44.70;;;;;;6171195;28;83924;-68
2023/06/04 04:00:42;;;;;;;6.40;3.22;;;22.80;44.80;;;;;;6181986;28;80442;-70
2023/06/04 04:03:43;;;;;;;4.07;3.13;;;22.80;44.70;;;;;;6176016;28;83783;-66
2023/06/04 04:06:43;;;;;;;9.43;3.13;;;22.80;44.70;;;;;;6191733;28;82114;-67
2023/06/04 04:09:45;;;;;;;5.22;2.80;;;22.80;44.70;;;;;;6175851;28;82079;-67
2023/06/04 04:12:46;;;;;;;3.92;2.40;;;22.80;44.70;;;;;;6190195;28;81612;-62
2023/06/04 04:15:47;;;;;;;4.00;2.78;;;22.80;44.70;;;;;;6177677;28;83113;-62
2023/06/04 04:18:48;;;;;;;5.35;2.78;;;22.80;44.70;;;;;;6186030;28;83050;-62
2023/06/04 04:21:49;;;;;;;4.07;2.70;;;22.80;44.70;;;;;;6177185;28;82456;-61
2023/06/04 04:24:52;;;;;;;6.68;3.25;;;22.80;44.70;;;;;;6172752;28;82860;-61
2023/06/04 04:27:56;;;;;;;5.38;3.10;;;22.80;44.80;;;;;;6191033;28;80482;-63
2023/06/04 04:30:57;;;;;;;4.95;3.08;;;22.80;44.80;;;;;;6181175;28;83127;-66
2023/06/04 04:33:58;;;;;;;7.38;3.45;;;22.80;44.80;;;;;;6195368;28;80469;-68
2023/06/04 04:36:59;;;;;;;6.60;3.10;;;22.80;44.80;;;;;;6174305;28;83320;-71
2023/06/04 04:40:00;;;;;;;5.95;2.70;;;22.80;44.90;;;;;;6174716;28;80235;-70
2023/06/04 04:43:05;;;;;;;3.72;2.75;;;22.80;44.90;;;;;;6167460;28;83549;-69
2023/06/04 04:46:06;;;;;;;4.53;2.65;;;22.80;44.90;;;;;;6175380;28;83416;-72
2023/06/04 04:49:06;;;;;;;5.85;2.85;;;22.80;45.20;;;;;;6187895;28;83154;-73
2023/06/04 04:52:07;;;;;;;4.90;2.70;;;22.90;45.20;;;;;;6195315;28;83294;-70
2023/06/04 04:55:09;;;;;;;4.25;2.40;;;22.90;45.20;;;;;;6177877;28;83571;-71
2023/06/04 04:58:10;;;;;;;4.38;2.50;;;22.90;45.40;;;;;;6178002;28;83100;-76
2023/06/04 05:01:11;;;;;;;4.68;2.80;;;22.90;45.20;;;;;;6181565;28;83158;-66
2023/06/04 05:04:14;;;;;;;4.40;2.80;;;22.90;45.30;;;;;;6190503;28;80514;-68
2023/06/04 05:07:15;;;;;;;6.63;2.60;;;22.90;45.40;;;;;;6182116;28;83346;-60
2023/06/04 05:10:17;;;;;;;6.40;2.42;;;22.90;45.50;;;;;;6175054;28;82543;-61
2023/06/04 05:13:19;;;;;;;4.55;2.63;;;22.90;45.60;;;;;;6181940;28;82836;-59
2023/06/04 05:16:27;;;;;;;10.10;2.65;;;22.90;45.70;;;;;;6168561;28;82189;-59
2023/06/04 05:19:28;;;;;;;6.03;2.53;;;22.90;45.70;;;;;;6178116;28;83351;-58
2023/06/04 05:22:29;;;;;;;4.57;2.53;;;22.90;46.30;;;;;;6185618;28;80948;-60
2023/06/04 05:25:31;;;;;;;4.63;2.60;;;22.90;45.70;;;;;;6185818;28;83421;-61
2023/06/04 05:28:33;;;;;;;4.70;2.40;;;22.90;45.70;;;;;;6170490;28;80911;-60
2023/06/04 05:31:34;;;;;;;3.97;2.55;;;22.90;45.60;;;;;;6180624;28;82645;-61
2023/06/04 05:34:39;;;;;;;5.07;2.70;;;22.90;45.80;;;;;;6175534;28;83882;-62
2023/06/04 05:37:41;;;;;;;6.78;2.15;;;22.90;45.60;;;;;;6167683;28;83469;-59
2023/06/04 05:40:43;;;;;;;3.92;2.60;;;22.90;45.80;;;;;;6167627;28;82944;-60
2023/06/04 05:43:44;;;;;;;5.32;2.80;;;23.00;45.90;;;;;;6190192;28;84146;-61
2023/06/04 05:46:46;;;;;;;6.03;2.38;;;23.00;46.40;;;;;;6180332;28;82501;-59
2023/06/04 05:49:47;;;;;;;4.53;2.60;;;23.00;46.40;;;;;;6182304;28;80610;-59
2023/06/04 05:52:48;;;;;;;4.05;2.55;;;23.00;46.20;;;;;;6175462;28;83541;-62
2023/06/04 05:55:49;;;;;;;6.13;2.10;;;23.00;46.10;;;;;;6178412;28;81248;-60
2023/06/04 05:58:49;;;;;;;9.73;2.33;;;23.00;46.40;;;;;;6199035;28;81012;-63
2023/06/04 06:01:50;;;;;;;4.03;2.00;;;23.00;46.40;;;;;;6181577;28;82146;-62
2023/06/04 06:04:51;;;;;;;3.42;2.38;;;23.10;46.70;;;;;;6196869;28;83055;-62
2023/06/04 06:07:51;;;;;;;6.65;2.25;;;23.10;46.50;;;;;;6195876;28;82028;-61
2023/06/04 06:10:52;;;;;;;4.25;2.38;;;23.10;46.40;;;;;;6200349;28;80553;-62
2023/06/04 06:13:52;;;;;;;5.00;2.30;;;23.10;46.40;;;;;;6184058;28;83691;-62
2023/06/04 06:16:53;;;;;;;2.92;2.10;;;23.10;46.40;;;;;;6197625;28;80068;-61
2023/06/04 06:19:53;;;;;;;5.88;2.03;;;23.10;46.40;;;;;;6181330;28;83225;-63
2023/06/04 06:22:54;;;;;;;8.13;2.33;;;23.10;46.90;;;;;;6181938;28;83367;-60
2023/06/04 06:25:56;;;;;;;6.20;2.75;;;23.20;46.70;;;;;;6187177;28;81731;-63
2023/06/04 06:29:01;;;;;;;4.32;2.95;;;23.20;47.40;;;;;;6170377;28;83501;-70
2023/06/04 06:32:02;;;;;;;9.10;2.45;;;23.10;48.60;;;;;;6171885;28;83315;-72
2023/06/04 06:35:03;;;;;;;6.72;3.47;;;23.20;48.30;;;;;;6184535;28;80557;-64
2023/06/04 06:38:03;;;;;;;7.18;3.10;;;23.20;47.90;;;;;;6189825;28;85611;-62
2023/06/04 06:41:04;;;;;;;6.90;2.63;;;23.20;47.90;;;;;;6190809;28;82699;-63
2023/06/04 06:44:05;;;;;;;3.88;2.45;;;23.20;47.30;;;;;;6172228;28;80541;-62
2023/06/04 06:47:05;;;;;;;10.38;3.13;;;23.20;47.30;;;;;;6192186;28;80735;-62
2023/06/04 06:50:06;;;;;;;5.85;2.45;;;23.20;47.20;;;;;;6193807;28;81081;-62
2023/06/04 06:53:06;;;;;;;5.07;2.40;;;23.30;47.20;;;;;;6189395;28;81125;-62
2023/06/04 06:56:07;;;;;;;4.28;2.38;;;23.30;46.80;;;;;;6195528;28;80480;-64
2023/06/04 06:59:07;;;;;;;4.70;2.60;;;23.20;46.80;;;;;;6200150;28;80275;-62
2023/06/04 07:02:08;;;;;;;7.18;2.60;;;23.20;46.90;;;;;;6195960;28;80261;-64
2023/06/04 07:05:09;;;;;;;9.70;3.20;;;23.20;46.90;;;;;;6196906;28;83092;-62
2023/06/04 07:08:09;;;;;;;4.40;2.05;;;23.20;47.00;;;;;;6201929;28;80512;-63
2023/06/04 07:11:13;;;;;;;9.93;2.65;;;23.30;46.80;;;;;;6200763;28;80492;-62
2023/06/04 07:14:13;;;;;;;6.55;2.83;;;23.20;46.90;;;;;;6199554;28;80475;-62
2023/06/04 07:17:14;;;;;;;3.70;2.28;;;23.30;46.80;;;;;;6201809;28;80874;-62
2023/06/04 07:20:14;;;;;;;7.78;2.88;;;23.20;46.80;;;;;;6191982;28;80590;-64
2023/06/04 07:23:15;;;;;;;8.07;2.75;;;23.30;46.90;;;;;;6191644;28;81371;-62
2023/06/04 07:26:15;;;;;;;6.70;2.42;;;23.30;47.10;;;;;;6191721;28;80522;-61
2023/06/04 07:29:16;;;;;;;6.88;2.85;;;23.30;46.90;;;;;;6197602;28;81295;-61
2023/06/04 07:32:17;;;;;;;5.97;3.08;;;23.40;46.80;;;;;;6198424;28;81287;-64
2023/06/04 07:35:17;;;;;;;8.90;2.65;;;23.40;46.80;;;;;;6203445;28;80436;-63
2023/06/04 07:38:18;;;;;;;8.75;2.63;;;23.30;47.00;;;;;;6199222;28;80792;-62
2023/06/04 07:41:18;;;;;;;6.47;2.67;;;23.40;46.90;;;;;;6181949;28;80335;-61
2023/06/04 07:44:19;;;;;;;5.57;2.22;;;23.40;46.80;;;;;;6183567;28;88321;-61
2023/06/04 07:47:20;;;;;;;4.55;2.50;;;23.40;46.70;;;;;;6201721;28;84940;-60
2023/06/04 07:50:21;;;;;;;3.67;2.30;;;23.40;46.90;;;;;;6193983;28;80432;-62
2023/06/04 07:53:21;;;;;;;12.13;3.20;;;23.50;46.90;;;;;;6188680;28;81302;-62
2023/06/04 07:56:22;;;;;;;4.05;2.38;;;23.50;46.90;;;;;;6181576;28;80584;-62
2023/06/04 07:59:22;;;;;;;2.60;2.10;;;23.50;47.00;;;;;;6183895;28;81161;-61
2023/06/04 08:02:23;;;;;;;13.50;2.95;;;23.50;47.20;;;;;;6183337;28;80732;-68
2023/06/04 08:05:24;;;;;;;5.53;2.65;;;23.50;47.10;;;;;;6192788;28;80875;-66
2023/06/04 08:08:24;;;;;;;4.40;2.30;;;23.50;47.10;;;;;;6203941;28;80983;-69
2023/06/04 08:11:25;;;;;;;12.20;2.95;;;23.50;47.20;;;;;;6191176;28;80486;-60
2023/06/04 08:14:27;;;;;;;5.40;2.70;;;23.50;46.90;;;;;;6189467;28;81055;-61
2023/06/04 08:17:27;;;;;;;9.55;2.80;;;23.50;46.80;;;;;;6177986;28;80557;-60
2023/06/04 08:20:28;;;;;;;4.60;2.53;;;23.50;47.40;;;;;;6193747;28;82248;-63
2023/06/04 08:23:28;;;;;;;3.70;2.20;;;23.60;47.60;;;;;;6197664;28;80440;-59
2023/06/04 08:26:29;;;;;;;5.55;2.22;;;23.60;47.50;;;;;;6194629;28;81119;-58
2023/06/04 08:29:29;;;;;;;4.55;2.47;;;23.60;47.50;;;;;;6189023;28;80720;-59
2023/06/04 08:32:30;;;;;;;7.25;2.95;;;23.60;47.60;;;;;;6192138;28;80481;-58
2023/06/04 08:35:30;;;;;;;4.25;2.10;;;23.60;47.60;;;;;;6189226;28;81565;-58
2023/06/04 08:38:31;;;;;;;8.98;2.47;;;23.60;48.00;;;;;;6194275;28;81003;-59
2023/06/04 08:41:31;;;;;;;5.97;2.63;;;23.60;48.20;;;;;;6185087;28;80630;-59
2023/06/04 08:44:32;;;;;;;6.00;2.28;;;23.70;48.30;;;;;;6187253;28;81264;-57
2023/06/04 08:47:32;;;;;;;4.65;2.30;;;23.60;48.20;;;;;;6185721;28;81258;-57
2023/06/04 08:50:33;;;;;;;5.95;2.15;;;23.70;48.10;;;;;;6186819;28;80833;-58
2023/06/04 08:53:33;;;;;;;7.38;2.35;;;23.70;48.20;;;;;;6196308;28;80454;-55
2023/06/04 08:56:34;;;;;;;6.78;2.20;;;23.60;48.20;;;;;;6196288;28;80470;-57
2023/06/04 08:59:34;;;;;;;7.25;2.78;;;23.70;48.30;;;;;;6193836;28;80365;-59
2023/06/04 09:02:35;;;;;;;5.43;2.22;;;23.70;48.10;;;;;;6193433;28;80185;-58
2023/06/04 09:05:35;;;;;;;7.60;2.38;;;23.70;48.00;;;;;;6187175;28;80430;-58
2023/06/04 09:08:36;;;;;;;5.88;2.20;;;23.70;47.80;;;;;;6187008;28;80479;-63
2023/06/04 09:11:36;;;;;;;6.47;2.22;;;23.70;47.80;;;;;;6185064;28;81370;-63
2023/06/04 09:14:37;;;;;;;8.45;2.80;;;23.70;47.60;;;;;;6192897;28;81525;-65
2023/06/04 09:17:37;;;;;;;8.27;2.83;;;23.70;47.30;;;;;;6188426;28;80612;-65
2023/06/04 09:20:38;;;;;;;6.47;2.42;;;23.70;47.50;;;;;;6195261;28;81010;-63
2023/06/04 09:23:38;;;;;;;4.95;2.40;;;23.60;46.80;;;;;;6186823;28;80936;-64
2023/06/04 09:26:39;;;;;;;13.40;2.70;;;23.70;47.20;;;;;;6187968;28;80312;-63
2023/06/04 09:29:40;;;;;;;10.27;2.60;;;23.60;45.90;;;;;;6187563;28;84105;-64
2023/06/04 09:32:40;;;;;;;3.85;2.22;;;23.60;46.80;;;;;;6186366;28;81511;-64
2023/06/04 09:35:41;;;;;;;7.65;2.40;;;23.60;46.60;;;;;;6190350;28;80863;-63
2023/06/04 09:38:41;;;;;;;7.35;2.97;;;23.60;46.30;;;;;;6196339;28;80989;-63
2023/06/04 09:41:45;;;;;;;5.93;2.58;;;23.70;45.90;;;;;;6173801;28;82769;-63
2023/06/04 09:44:45;;;;;;;4.07;2.03;;;23.60;45.80;;;;;;6193631;28;80503;-63
2023/06/04 09:47:46;;;;;;;3.08;1.63;;;23.70;45.50;;;;;;6201386;28;81656;-64
2023/06/04 09:50:47;;;;;;;7.95;1.85;;;23.70;45.50;;;;;;6202558;28;80190;-63
2023/06/04 09:53:47;;;;;;;3.35;1.75;;;23.70;45.40;;;;;;6201100;28;80794;-63
2023/06/04 09:56:48;;;;;;;5.53;1.98;;;23.70;45.40;;;;;;6182402;28;80938;-63
2023/06/04 09:59:48;;;;;;;2.83;2.08;;;23.70;45.10;;;;;;6196329;28;80902;-63
2023/06/04 10:02:49;;;;;;;5.25;2.10;;;23.70;44.90;;;;;;6199810;28;80594;-62
2023/06/04 10:05:50;;;;;;;3.90;1.95;;;23.70;45.40;;;;;;6185428;28;80687;-63
2023/06/04 10:08:51;;;;;;;3.25;1.98;;;23.70;45.40;;;;;;6177433;28;80451;-62
2023/06/04 10:11:51;;;;;;;2.60;1.85;;;23.70;45.40;;;;;;6180253;28;80525;-62
2023/06/04 10:14:52;;;;;;;5.70;2.10;;;23.70;45.10;;;;;;6195697;28;80900;-63
2023/06/04 10:17:52;;;;;;;8.88;2.42;;;23.70;44.50;;;;;;6180171;28;80739;-64
2023/06/04 10:20:53;;;;;;;4.57;1.67;;;23.70;44.40;;;;;;6200613;28;80827;-63
2023/06/04 10:23:53;;;;;;;10.30;2.70;;;23.80;44.20;;;;;;6184701;28;80949;-63
2023/06/04 10:26:55;;;;;;;3.38;2.10;;;23.70;44.70;;;;;;6186008;28;84267;-63
2023/06/04 10:29:55;;;;;;;3.00;1.70;;;23.80;44.30;;;;;;6189579;28;80474;-63
2023/06/04 10:32:56;;;;;;;5.07;2.22;;;23.80;44.10;;;;;;6200172;28;80288;-64
2023/06/04 10:35:56;;;;;;;3.83;2.00;;;23.70;44.00;;;;;;6177670;28;81253;-62
2023/06/04 10:38:57;;;;;;;3.80;2.25;;;23.70;43.90;;;;;;6191110;28;81256;-63
2023/06/04 10:41:58;;;;;;;3.33;2.28;;;23.80;44.00;;;;;;6186359;28;80698;-62
2023/06/04 10:44:58;;;;;;;3.67;1.90;;;23.80;43.60;;;;;;6188170;28;80360;-63
2023/06/04 10:47:59;;;;;;;3.50;1.80;;;23.80;44.00;;;;;;6203070;28;83386;-63
2023/06/04 10:51:00;;;;;;;3.55;1.77;;;23.80;43.50;;;;;;6193437;28;80529;-62
2023/06/04 10:54:00;;;;;;;3.50;1.75;;;23.80;44.00;;;;;;6203991;28;80681;-63
2023/06/04 10:57:01;;;;;;;2.85;1.90;;;23.80;43.10;;;;;;6205205;28;80210;-63
2023/06/04 11:00:05;;;;;;;4.80;1.83;;;23.80;43.50;;;;;;6203896;28;80652;-63
2023/06/04 11:03:09;;;;;;;3.15;1.58;;;23.80;43.00;;;;;;6197535;28;80179;-63
2023/06/04 11:06:10;;;;;;;4.00;1.60;;;23.80;42.70;;;;;;6197644;28;80324;-63
2023/06/04 11:09:12;;;;;;;2.67;1.90;;;23.90;42.90;;;;;;6190848;28;80401;-63
2023/06/04 11:12:12;;;;;;;6.30;1.77;;;23.80;40.50;;;;;;6190899;28;81048;-63
2023/06/04 11:15:13;;;;;;;4.32;1.60;;;23.80;41.70;;;;;;6180003;28;80581;-64
2023/06/04 11:18:14;;;;;;;2.08;1.73;;;23.80;41.20;;;;;;6199513;28;81200;-63
2023/06/04 11:21:14;;;;;;;5.30;1.52;;;23.80;40.90;;;;;;6205211;28;80593;-64
2023/06/04 11:24:15;;;;;;;2.85;1.70;;;23.90;41.40;;;;;;6197199;28;80411;-63
2023/06/04 11:27:15;;;;;;;4.60;1.40;;;23.90;41.00;;;;;;6191664;28;80379;-63
2023/06/04 11:30:16;;;;;;;1.73;1.50;;;23.90;41.90;;;;;;6203915;28;80672;-63
2023/06/04 11:33:16;;;;;;;2.88;2.03;;;23.90;42.40;;;;;;6203898;28;81409;-62
2023/06/04 11:36:17;;;;;;;2.17;1.63;;;23.90;42.60;;;;;;6205731;28;80578;-62
2023/06/04 11:39:17;;;;;;;2.50;1.60;;;23.90;42.60;;;;;;6203914;28;81380;-62
2023/06/04 11:42:18;;;;;;;2.38;1.50;;;23.90;42.90;;;;;;6203925;28;83727;-63
2023/06/04 11:45:18;;;;;;;1.98;1.60;;;23.90;42.70;;;;;;6195169;28;80248;-64
2023/06/04 11:48:19;;;;;;;2.47;1.33;;;23.90;42.90;;;;;;6203462;28;83438;-63
2023/06/04 11:51:19;;;;;;;3.10;1.70;;;23.90;43.40;;;;;;6202782;28;80402;-63
2023/06/04 11:54:20;;;;;;;3.35;2.10;;;23.90;42.60;;;;;;6204195;28;81035;-65
2023/06/04 11:57:20;;;;;;;2.85;1.58;;;23.90;43.10;;;;;;6203599;28;80507;-63
2023/06/04 12:00:21;;;;;;;2.53;1.90;;;23.90;42.70;;;;;;6199610;28;80136;-64
2023/06/04 12:03:22;;;;;;;2.88;1.65;;;23.90;43.10;;;;;;6202162;28;80543;-60
2023/06/04 12:06:23;;;;;;;4.68;1.90;;;23.90;43.00;;;;;;6203508;28;80293;-60
2023/06/04 12:09:23;;;;;;;5.40;1.92;;;23.90;42.60;;;;;;6203315;28;80971;-74
2023/06/04 12:12:24;;;;;;;2.85;1.60;;;24.00;42.10;;;;;;6202730;28;81469;-75
2023/06/04 12:15:24;;;;;;;3.53;2.10;;;24.00;41.20;;;;;;6187276;28;81333;-73
2023/06/04 12:18:25;;;;;;;5.13;2.38;;;24.10;40.10;;;;;;6176375;28;81589;-73
2023/06/04 12:21:29;;;;;;;3.88;2.65;;;24.10;38.30;;;;;;6174144;28;81214;-76
2023/06/04 12:24:30;;;;;;;2.45;1.77;;;24.10;37.20;;;;;;6182041;28;81871;-75
2023/06/04 12:27:31;;;;;;;5.13;2.10;;;24.10;40.00;;;;;;6159293;28;81588;-76
2023/06/04 12:30:31;;;;;;;16.50;2.38;;;24.10;39.10;;;;;;6177841;28;81404;-76
2023/06/04 12:33:32;;;;;;;2.92;1.90;;;24.10;38.50;;;;;;6169883;28;81839;-73
2023/06/04 12:36:33;;;;;;;7.72;2.17;;;24.10;39.90;;;;;;6176906;28;81484;-77
2023/06/04 12:39:36;;;;;;;6.35;2.45;;;24.20;39.40;;;;;;6174506;28;81148;-73
2023/06/04 12:42:36;;;;;;;4.18;2.20;;;24.20;39.30;;;;;;6173851;28;81724;-76
2023/06/04 12:45:37;;;;;;;4.47;2.50;;;24.20;39.30;;;;;;6176780;28;81747;-72
2023/06/04 12:48:38;;;;;;;5.20;2.17;;;24.30;39.40;;;;;;6182491;28;82060;-70
2023/06/04 12:51:38;;;;;;;4.40;2.25;;;24.30;39.30;;;;;;6157118;28;81881;-59
2023/06/04 12:54:39;;;;;;;6.35;2.30;;;24.30;39.20;;;;;;6179872;28;81616;-64
2023/06/04 12:57:39;;;;;;;3.33;1.80;;;24.30;39.00;;;;;;6174693;28;81273;-61
2023/06/04 13:00:40;;;;;;;5.18;2.40;;;24.30;38.90;;;;;;6176685;28;81982;-62
2023/06/04 13:03:40;;;;;;;7.20;2.28;;;24.40;38.90;;;;;;6178782;28;81576;-65
2023/06/04 13:06:41;;;;;;;7.43;2.50;;;24.40;39.30;;;;;;6172435;28;82140;-64
2023/06/04 13:09:41;;;;;;;6.43;2.35;;;24.40;39.40;;;;;;6170683;28;81390;-63
2023/06/04 13:12:42;;;;;;;4.15;2.63;;;24.40;39.70;;;;;;6168251;28;82739;-63
2023/06/04 13:15:42;;;;;;;8.65;2.25;;;24.40;39.80;;;;;;6167232;28;83612;-64
2023/06/04 13:18:43;;;;;;;6.68;2.13;;;24.30;39.90;;;;;;6173853;28;81628;-61
2023/06/04 13:21:43;;;;;;;6.82;2.88;;;24.30;40.20;;;;;;6171420;28;82260;-56
2023/06/04 13:24:44;;;;;;;7.35;1.98;;;24.40;40.30;;;;;;6172557;28;80876;-56
2023/06/04 13:27:44;;;;;;;7.07;1.92;;;24.40;39.60;;;;;;6195823;28;80584;-55
2023/06/04 13:30:45;;;;;;;3.45;1.90;;;24.30;39.10;;;;;;6177157;28;81238;-54
2023/06/04 13:33:45;;;;;;;8.55;2.28;;;24.30;38.90;;;;;;6184167;28;80269;-58
2023/06/04 13:36:46;;;;;;;5.07;1.85;;;24.40;39.00;;;;;;6171575;28;82063;-56
2023/06/04 13:39:46;;;;;;;5.70;1.95;;;24.30;38.30;;;;;;6196443;28;81127;-54
2023/06/04 13:42:47;;;;;;;4.30;2.30;;;24.30;38.90;;;;;;6189217;28;81365;-56
2023/06/04 13:45:48;;;;;;;6.47;2.08;;;24.30;38.40;;;;;;6189564;28;80795;-52
2023/06/04 13:48:48;;;;;;;4.13;2.17;;;24.20;37.60;;;;;;6190366;28;80957;-56
2023/06/04 13:51:49;;;;;;;5.03;2.13;;;24.10;37.50;;;;;;6181930;28;81593;-55
2023/06/04 13:54:49;;;;;;;3.55;1.92;;;24.10;37.80;;;;;;6190934;28;80464;-55
2023/06/04 13:57:50;;;;;;;4.68;1.80;;;24.10;38.10;;;;;;6186949;28;80842;-57
2023/06/04 14:00:50;;;;;;;3.28;2.03;;;24.20;38.30;;;;;;6189643;28;82786;-56
2023/06/04 14:03:51;;;;;;;3.80;2.13;;;24.20;37.40;;;;;;6179406;28;81236;-58
2023/06/04 14:06:52;;;;;;;10.52;2.40;;;24.20;37.40;;;;;;6165866;28;80757;-56
2023/06/04 14:09:54;;;;;;;4.97;2.33;;;24.30;37.70;;;;;;6167766;28;82359;-57
2023/06/04 14:12:55;;;;;;;5.05;2.17;;;24.30;36.90;;;;;;6176529;28;81309;-57
2023/06/04 14:15:55;;;;;;;4.53;2.28;;;24.30;36.10;;;;;;6168105;28;81269;-56
2023/06/04 14:18:56;;;;;;;6.38;2.42;;;24.30;36.90;;;;;;6172403;28;82016;-59
2023/06/04 14:21:56;;;;;;;8.70;2.55;;;24.30;36.70;;;;;;6172898;28;81457;-59
2023/06/04 14:24:57;;;;;;;4.75;2.60;;;24.20;37.30;;;;;;6166056;28;80667;-59
2023/06/04 14:27:57;;;;;;;6.32;2.35;;;24.20;37.10;;;;;;6173401;28;81796;-61
2023/06/04 14:30:58;;;;;;;3.42;2.30;;;24.30;37.10;;;;;;6178856;28;81649;-59
2023/06/04 14:33:58;;;;;;;4.82;2.60;;;24.30;36.50;;;;;;6173546;28;81673;-58
2023/06/04 14:36:59;;;;;;;4.82;2.30;;;24.30;37.20;;;;;;6175182;28;81117;-69
2023/06/04 14:40:00;;;;;;;4.90;2.28;;;24.20;37.30;;;;;;6175266;28;81229;-69
2023/06/04 14:43:00;;;;;;;4.80;2.40;;;24.20;37.40;;;;;;6174774;28;83299;-71
2023/06/04 14:46:01;;;;;;;6.07;2.45;;;24.20;37.00;;;;;;6176086;28;80599;-72
2023/06/04 14:49:01;;;;;;;4.82;2.10;;;24.20;37.50;;;;;;6175129;28;81644;-67
2023/06/04 14:52:02;;;;;;;5.32;2.03;;;24.20;37.80;;;;;;6178410;28;81646;-70
2023/06/04 14:55:02;;;;;;;15.45;3.20;;;24.20;38.00;;;;;;6168014;28;82123;-67
2023/06/04 14:58:03;;;;;;;6.88;2.65;;;24.20;38.90;;;;;;6174177;28;83337;-68
2023/06/04 15:01:04;;;;;;;5.15;2.55;;;24.30;38.30;;;;;;6202579;28;81177;-64
2023/06/04 15:04:04;;;;;;;5.45;3.08;;;24.20;37.40;;;;;;6199568;28;80565;-63
2023/06/04 15:07:05;;;;;;;7.93;2.10;;;24.10;38.00;;;;;;6190210;28;80472;-66
2023/06/04 15:10:06;;;;;;;7.15;2.13;;;24.20;37.20;;;;;;6195870;28;80860;-67
2023/06/04 15:13:06;;;;;;;3.60;2.55;;;24.30;37.60;;;;;;6186380;28;80551;-56
2023/06/04 15:16:07;;;;;;;13.52;2.80;;;24.30;38.30;;;;;;6184811;28;81030;-57
2023/06/04 15:19:08;;;;;;;6.18;2.85;;;24.30;39.10;;;;;;6180659;28;80963;-56
2023/06/04 15:22:08;;;;;;;8.32;2.03;;;24.30;39.90;;;;;;6198932;28;80507;-58
2023/06/04 15:25:09;;;;;;;6.63;2.65;;;24.30;38.80;;;;;;6200004;28;80500;-58
2023/06/04 15:28:10;;;;;;;4.72;2.17;;;24.40;40.00;;;;;;6190401;28;80605;-58
2023/06/04 15:31:10;;;;;;;6.95;2.38;;;24.30;39.00;;;;;;6180867;28;80349;-56
2023/06/04 15:34:11;;;;;;;3.72;2.00;;;24.30;38.30;;;;;;6191389;28;81964;-57
2023/06/04 15:37:11;;;;;;;5.47;2.22;;;24.30;38.60;;;;;;6205718;28;80510;-58
2023/06/04 15:40:12;;;;;;;3.80;2.28;;;24.30;38.90;;;;;;6189741;28;80431;-57